^^
Meteo Knjazevac Station Historical Data
Daily Summary for January 6, 2021 Units:  Metric    English   Both
Daily Weekly Monthly Yearly Custom
  High: Low: Average:
Temperature: 1.4 °C 0.4 °C 0.8 °C
Dew Point: 1.1 °C -0.2 °C 0.4 °C
Humidity: 99% 94% 97%
Wind Speed: 8km/h 0km/h 3.2km/h
Wind Gust: 12.9km/h - -
Wind- - SSW
Pressure: 1016.5 hPa 1015.8 hPa -
Precipitation: 0 mm    
Historical Graphs
 
 
Tabular Data for January 6, 2021
Time Temperature Dew Point Pressure Wind Wind Speed Wind Gust Humidity Rainfall Rate (Hourly) solar Conditions
00:00 1 °C 0.2 °C 1016.1 hPa West 8 km/h 12.9 km/h 94% 0 mm 0 W/m2
00:10 0.8 °C 0.1 °C 1016.1 hPa West 4.8 km/h 11.3 km/h 95% 0 mm 0 W/m2
00:20 0.9 °C 0.4 °C 1016.1 hPa WNW 8 km/h 12.9 km/h 96% 0 mm 0 W/m2
00:30 1.1 °C 0.4 °C 1016.1 hPa WNW 3.2 km/h 12.9 km/h 95% 0 mm 0 W/m2
00:40 0.8 °C 0.1 °C 1016.1 hPa West 3.2 km/h 8 km/h 95% 0 mm 0 W/m2
00:50 0.6 °C -0.1 °C 1016.1 hPa West 3.2 km/h 8 km/h 95% 0 mm 0 W/m2
01:00 0.5 °C -0.1 °C 1016.1 hPa NW 3.2 km/h 9.7 km/h 96% 0 mm 0 W/m2
01:10 0.7 °C 0.1 °C 1016.5 hPa Calm   9.7 km/h 96% 0 mm 0 W/m2
01:20 0.8 °C 0.2 °C 1016.5 hPa NW 1.6 km/h 8 km/h 96% 0 mm 0 W/m2
01:30 0.7 °C 0.2 °C 1016.5 hPa WSW 3.2 km/h 6.4 km/h 96% 0 mm 0 W/m2
01:40 0.6 °C 0.1 °C 1016.1 hPa WNW 4.8 km/h 9.7 km/h 96% 0 mm 0 W/m2
01:50 0.5 °C -0.1 °C 1016.5 hPa WNW 4.8 km/h 11.3 km/h 96% 0 mm 0 W/m2
02:00 0.6 °C 0.3 °C 1016.5 hPa West 4.8 km/h 11.3 km/h 98% 0 mm 0 W/m2
02:10 0.5 °C -0.1 °C 1016.5 hPa West 3.2 km/h 9.7 km/h 96% 0 mm 0 W/m2
02:20 0.4 °C -0.2 °C 1016.5 hPa Calm   8 km/h 96% 0 mm 0 W/m2
02:30 0.4 °C -0.2 °C 1016.5 hPa Calm   3.2 km/h 96% 0 mm 0 W/m2
02:40 0.4 °C 0.1 °C 1016.5 hPa North 1.6 km/h 8 km/h 98% 0 mm 0 W/m2
02:50 0.5 °C 0.2 °C 1016.5 hPa ENE 1.6 km/h 6.4 km/h 98% 0 mm 0 W/m2
03:00 0.6 °C 0.3 °C 1016.5 hPa NNW 1.6 km/h 6.4 km/h 98% 0 mm 0 W/m2
03:10 0.8 °C 0.5 °C 1016.1 hPa North 3.2 km/h 8 km/h 98% 0 mm 0 W/m2
03:20 0.9 °C 0.6 °C 1016.1 hPa NNE 3.2 km/h 8 km/h 98% 0 mm 0 W/m2
03:30 0.9 °C 0.6 °C 1016.1 hPa Calm   6.4 km/h 98% 0 mm 0 W/m2
03:40 0.8 °C 0.2 °C 1016.1 hPa WSW 3.2 km/h 8 km/h 96% 0 mm 0 W/m2
03:50 0.8 °C 0.5 °C 1015.8 hPa West 4.8 km/h 9.7 km/h 98% 0 mm 0 W/m2
04:00 0.8 °C 0.5 °C 1015.8 hPa NNW 4.8 km/h 8 km/h 98% 0 mm 0 W/m2
04:10 0.9 °C 0.7 °C 1016.1 hPa NNE 1.6 km/h 9.7 km/h 98% 0 mm 0 W/m2
04:20 1.1 °C 0.8 °C 1015.8 hPa NNE 4.8 km/h 9.7 km/h 98% 0 mm 0 W/m2
04:30 1 °C 0.7 °C 1015.8 hPa NNE 4.8 km/h 8 km/h 98% 0 mm 0 W/m2
04:40 1 °C 0.4 °C 1016.1 hPa NE 4.8 km/h 11.3 km/h 96% 0 mm 0 W/m2
04:50 0.9 °C 0.6 °C 1015.8 hPa NNE 3.2 km/h 9.7 km/h 98% 0 mm 0 W/m2
05:00 1 °C 0.7 °C 1016.1 hPa West 4.8 km/h 8 km/h 98% 0 mm 0 W/m2
05:10 0.9 °C 0.6 °C 1015.8 hPa West 4.8 km/h 8 km/h 98% 0 mm 0 W/m2
05:20 0.9 °C 0.6 °C 1015.8 hPa WSW 3.2 km/h 6.4 km/h 98% 0 mm 0 W/m2
05:30 0.9 °C 0.6 °C 1015.8 hPa West 3.2 km/h 9.7 km/h 98% 0 mm 0 W/m2
05:40 1.1 °C 0.9 °C 1016.1 hPa West 1.6 km/h 8 km/h 99% 0 mm 0 W/m2
05:50 1.2 °C 0.9 °C 1016.1 hPa West 1.6 km/h 8 km/h 98% 0 mm 0 W/m2
06:00 1.3 °C 1 °C 1016.1 hPa Calm   3.2 km/h 98% 0 mm 0 W/m2
06:10 1.4 °C 1.1 °C 1016.1 hPa SW 1.6 km/h 4.8 km/h 98% 0 mm 0 W/m2
06:20 1.3 °C 1 °C 1016.1 hPa WSW 1.6 km/h 6.4 km/h 98% 0 mm 0 W/m2
06:30 1.3 °C 1 °C 1016.1 hPa NNE 8 km/h 11.3 km/h 98% 0 mm 0 W/m2
Knjazevac, Serbia
Compliments of Weather Underground - 2 mb